createdAt,value
2023-02-11T00:01:52.284Z,102043.70
2023-02-11T00:04:20.200Z,102039.74
2023-02-11T00:06:48.001Z,102034.83
2023-02-11T00:09:16.004Z,102031.01
2023-02-11T00:11:43.716Z,102024.30
2023-02-11T00:14:11.989Z,102024.84
2023-02-11T00:16:40.093Z,102021.15
2023-02-11T00:19:07.887Z,102016.89
2023-02-11T00:21:36.030Z,102021.45
2023-02-11T00:24:06.700Z,102014.34
2023-02-11T00:26:35.760Z,102015.97
2023-02-11T00:29:05.170Z,102015.39
2023-02-11T00:31:33.723Z,102015.84
2023-02-11T00:34:01.857Z,102009.04
2023-02-11T00:36:30.268Z,102008.55
2023-02-11T00:38:58.999Z,102003.25
2023-02-11T00:41:26.817Z,101998.21
2023-02-11T00:43:54.717Z,101999.95
2023-02-11T00:46:23.139Z,102000.92
2023-02-11T00:48:53.404Z,102004.16
2023-02-11T00:51:21.219Z,102001.80
2023-02-11T00:53:49.032Z,101993.85
2023-02-11T00:56:16.769Z,101992.52
2023-02-11T00:58:44.964Z,101986.13
2023-02-11T01:01:13.135Z,101986.27
2023-02-11T01:03:41.510Z,101979.55
2023-02-11T01:06:10.028Z,101972.77
2023-02-11T01:08:38.773Z,101972.96
2023-02-11T01:11:12.284Z,101972.71
2023-02-11T01:13:40.306Z,101969.25
2023-02-11T01:16:09.890Z,101967.14
2023-02-11T01:18:37.930Z,101969.73
2023-02-11T01:21:06.118Z,101959.11
2023-02-11T01:23:33.917Z,101951.92
2023-02-11T01:26:01.967Z,101943.58
2023-02-11T01:28:31.228Z,101937.80
2023-02-11T01:31:03.616Z,101941.27
2023-02-11T01:33:31.841Z,101932.88
2023-02-11T01:36:04.932Z,101932.88
2023-02-11T01:38:33.568Z,101924.20
2023-02-11T01:41:04.019Z,101924.23
2023-02-11T01:43:36.071Z,101910.80
2023-02-11T01:46:29.939Z,101904.14
2023-02-11T01:49:03.695Z,101901.60
2023-02-11T01:51:36.581Z,101893.71
2023-02-11T01:54:25.018Z,101888.79
2023-02-11T01:57:11.978Z,101883.86
2023-02-11T01:59:45.226Z,101877.23
2023-02-11T02:02:14.136Z,101877.84
2023-02-11T02:04:47.251Z,101880.03
2023-02-11T02:07:25.018Z,101870.63
2023-02-11T02:09:58.696Z,101866.66
2023-02-11T02:12:26.656Z,101867.95
2023-02-11T02:15:18.176Z,101870.42
2023-02-11T02:17:57.897Z,101864.44
2023-02-11T02:20:52.339Z,101857.41
2023-02-11T02:23:41.974Z,101846.80
2023-02-11T02:26:34.642Z,101836.48
2023-02-11T02:29:33.265Z,101837.34
2023-02-11T02:32:25.691Z,101834.54
2023-02-11T02:35:24.355Z,101820.31
2023-02-11T02:38:06.620Z,101818.05
2023-02-11T02:41:14.016Z,101818.39
2023-02-11T02:43:48.250Z,101823.52
2023-02-11T02:46:27.651Z,101817.32
2023-02-11T02:48:57.055Z,101809.73
2023-02-11T02:51:32.927Z,101816.17
2023-02-11T02:54:22.224Z,101811.83
2023-02-11T02:57:23.111Z,101797.91
2023-02-11T03:00:16.219Z,101792.13
2023-02-11T03:03:03.065Z,101794.56
2023-02-11T03:05:55.294Z,101794.05
2023-02-11T03:08:35.085Z,101783.77
2023-02-11T03:11:06.051Z,101771.40
2023-02-11T03:13:36.280Z,101761.83
2023-02-11T03:16:26.543Z,101774.13
2023-02-11T03:19:13.008Z,101781.14
2023-02-11T03:21:42.154Z,101777.09
2023-02-11T03:24:29.526Z,101775.39
2023-02-11T03:27:01.479Z,101782.27
2023-02-11T03:29:35.963Z,101779.23
2023-02-11T03:32:06.923Z,101774.30
2023-02-11T03:34:44.123Z,101783.30
2023-02-11T03:37:26.520Z,101782.88
2023-02-11T03:40:14.033Z,101782.16
2023-02-11T03:42:46.598Z,101786.02
2023-02-11T03:45:17.386Z,101787.16
2023-02-11T03:47:49.421Z,101775.73
2023-02-11T03:50:18.528Z,101777.72
2023-02-11T03:52:48.009Z,101776.52
2023-02-11T03:55:20.148Z,101778.34
2023-02-11T03:57:48.360Z,101775.84
2023-02-11T04:00:16.271Z,101775.88
2023-02-11T04:02:44.804Z,101767.09
2023-02-11T04:05:15.504Z,101762.77
2023-02-11T04:07:43.437Z,101757.70
2023-02-11T04:10:12.502Z,101752.89
2023-02-11T04:12:40.484Z,101749.09
2023-02-11T04:15:08.672Z,101741.42
2023-02-11T04:17:36.892Z,101739.88
2023-02-11T04:20:05.237Z,101736.14
2023-02-11T04:22:32.941Z,101726.02
2023-02-11T04:25:00.827Z,101724.31
2023-02-11T04:27:28.756Z,101716.41
2023-02-11T04:29:57.030Z,101719.43
2023-02-11T04:32:24.775Z,101719.01
2023-02-11T04:34:52.687Z,101706.04
2023-02-11T04:37:20.515Z,101703.85
2023-02-11T04:39:48.208Z,101698.84
2023-02-11T04:42:16.182Z,101697.39
2023-02-11T04:44:44.138Z,101699.75
2023-02-11T04:47:13.551Z,101703.64
2023-02-11T04:49:41.993Z,101705.30
2023-02-11T04:52:09.710Z,101704.59
2023-02-11T04:54:37.652Z,101698.70
2023-02-11T04:57:05.581Z,101705.61
2023-02-11T04:59:33.472Z,101709.93
2023-02-11T05:02:01.261Z,101701.98
2023-02-11T05:04:29.123Z,101701.89
2023-02-11T05:06:58.637Z,101697.04
2023-02-11T05:09:26.730Z,101691.13
2023-02-11T05:11:57.502Z,101686.39
2023-02-11T05:14:25.493Z,101681.09
2023-02-11T05:16:53.392Z,101673.83
2023-02-11T05:19:21.298Z,101665.39
2023-02-11T05:22:01.639Z,101654.58
2023-02-11T05:24:32.340Z,101652.36
2023-02-11T05:27:00.663Z,101654.23
2023-02-11T05:29:28.789Z,101654.39
2023-02-11T05:31:56.648Z,101653.33
2023-02-11T05:34:24.517Z,101654.14
2023-02-11T05:36:52.521Z,101650.78
2023-02-11T05:39:20.327Z,101646.60
2023-02-11T05:41:48.231Z,101644.56
2023-02-11T05:44:16.005Z,101651.55
2023-02-11T05:46:44.046Z,101649.20
2023-02-11T05:49:11.975Z,101657.77
2023-02-11T05:51:39.748Z,101651.95
2023-02-11T05:54:07.599Z,101653.84
2023-02-11T05:56:35.307Z,101648.19
2023-02-11T05:59:03.289Z,101651.81
2023-02-11T06:01:31.145Z,101647.13
2023-02-11T06:03:59.007Z,101644.21
2023-02-11T06:06:26.936Z,101644.52
2023-02-11T06:08:54.798Z,101640.29
2023-02-11T06:11:22.773Z,101636.41
2023-02-11T06:13:50.916Z,101632.79
2023-02-11T06:16:18.682Z,101633.91
2023-02-11T06:18:46.601Z,101629.05
2023-02-11T06:21:14.434Z,101629.29
2023-02-11T06:23:43.405Z,101631.48
2023-02-11T06:26:20.431Z,101634.63
2023-02-11T06:28:48.650Z,101635.13
2023-02-11T06:31:16.796Z,101638.36
2023-02-11T06:33:44.759Z,101636.67
2023-02-11T06:36:16.474Z,101637.77
2023-02-11T06:38:44.682Z,101641.48
2023-02-11T06:41:17.645Z,101641.16
2023-02-11T06:43:45.750Z,101637.11
2023-02-11T06:46:13.805Z,101631.10
2023-02-11T06:48:44.657Z,101628.44
2023-02-11T06:51:13.888Z,101628.14
2023-02-11T06:53:46.594Z,101630.05
2023-02-11T06:56:19.432Z,101624.83
2023-02-11T06:58:47.969Z,101630.26
2023-02-11T07:01:16.483Z,101630.16
2023-02-11T07:03:45.335Z,101629.54
2023-02-11T07:06:16.651Z,101629.75
2023-02-11T07:08:46.291Z,101623.70
2023-02-11T07:11:24.634Z,101616.42
2023-02-11T07:13:55.033Z,101606.80
2023-02-11T07:16:23.350Z,101598.31
2023-02-11T07:18:51.349Z,101596.38
2023-02-11T07:21:21.741Z,101592.58
2023-02-11T07:23:49.712Z,101591.88
2023-02-11T07:26:19.864Z,101599.39
2023-02-11T07:28:47.658Z,101600.06
2023-02-11T07:31:27.847Z,101603.02
2023-02-11T07:33:58.182Z,101585.78
2023-02-11T07:36:28.429Z,101590.73
2023-02-11T07:38:56.502Z,101593.78
2023-02-11T07:41:28.273Z,101600.14
2023-02-11T07:43:56.509Z,101600.99
2023-02-11T07:46:27.175Z,101603.80
2023-02-11T07:48:55.635Z,101595.70
2023-02-11T07:51:26.412Z,101591.50
2023-02-11T07:53:55.544Z,101588.76
2023-02-11T07:56:24.105Z,101590.33
2023-02-11T07:58:51.989Z,101591.44
2023-02-11T08:01:27.299Z,101593.28
2023-02-11T08:03:57.085Z,101602.84
2023-02-11T08:06:26.549Z,101611.19
2023-02-11T08:08:54.815Z,101614.62
2023-02-11T08:11:25.499Z,101617.92
2023-02-11T08:13:54.132Z,101616.92
2023-02-11T08:16:27.801Z,101606.65
2023-02-11T08:18:57.797Z,101604.65
2023-02-11T08:21:26.401Z,101604.56
2023-02-11T08:23:54.859Z,101616.19
2023-02-11T08:26:25.416Z,101625.17
2023-02-11T08:28:55.363Z,101628.59
2023-02-11T08:31:26.507Z,101630.39
2023-02-11T08:33:57.955Z,101633.98
2023-02-11T08:36:29.802Z,101627.38
2023-02-11T08:39:18.037Z,101629.31
2023-02-11T08:41:57.000Z,101621.02
2023-02-11T08:44:25.280Z,101616.58
2023-02-11T08:46:53.602Z,101611.21
2023-02-11T08:49:21.693Z,101613.61
2023-02-11T08:51:50.007Z,101607.55
2023-02-11T08:54:17.953Z,101600.06
2023-02-11T08:56:46.028Z,101600.02
2023-02-11T08:59:15.232Z,101596.95
2023-02-11T09:01:44.538Z,101590.38
2023-02-11T09:04:13.097Z,101584.05
2023-02-11T09:06:41.308Z,101573.20
2023-02-11T09:09:13.719Z,101564.14
2023-02-11T09:11:42.689Z,101561.61
2023-02-11T09:14:18.296Z,101566.04
2023-02-11T09:16:46.503Z,101565.16
2023-02-11T09:19:14.393Z,101561.38
2023-02-11T09:21:42.298Z,101559.69
2023-02-11T09:24:10.977Z,101556.00
2023-02-11T09:26:38.997Z,101549.70
2023-02-11T09:29:06.993Z,101554.80
2023-02-11T09:31:35.432Z,101554.33
2023-02-11T09:34:06.104Z,101547.92
2023-02-11T09:36:37.584Z,101543.92
2023-02-11T09:39:08.512Z,101542.35
2023-02-11T09:41:43.723Z,101540.19
2023-02-11T09:44:20.655Z,101532.79
2023-02-11T09:46:56.815Z,101527.36
2023-02-11T09:49:45.144Z,101518.42
2023-02-11T09:52:43.435Z,101512.60
2023-02-11T09:55:28.281Z,101517.91
2023-02-11T09:57:56.820Z,101510.27
2023-02-11T10:00:29.880Z,101515.45
2023-02-11T10:03:16.507Z,101516.78
2023-02-11T10:06:07.164Z,101529.42
2023-02-11T10:08:41.988Z,101526.76
2023-02-11T10:11:35.697Z,101526.48
2023-02-11T10:17:23.166Z,101500.65
2023-02-11T10:20:03.541Z,101498.52
2023-02-11T10:22:36.844Z,101499.55
2023-02-11T10:25:34.204Z,101506.13
2023-02-11T10:28:15.349Z,101489.70
2023-02-11T10:31:00.318Z,101478.92
2023-02-11T10:33:32.846Z,101498.81
2023-02-11T10:36:00.654Z,101490.88
2023-02-11T10:38:28.585Z,101495.05
2023-02-11T10:40:56.544Z,101486.15
2023-02-11T10:43:27.151Z,101488.15
2023-02-11T10:45:56.540Z,101484.41
2023-02-11T10:48:43.910Z,101479.75
2023-02-11T10:51:18.440Z,101481.36
2023-02-11T10:53:48.365Z,101471.27
2023-02-11T10:56:26.062Z,101482.46
2023-02-11T10:59:22.166Z,101488.74
2023-02-11T11:01:51.883Z,101483.27
2023-02-11T11:04:37.817Z,101485.47
2023-02-11T11:07:29.488Z,101486.60
2023-02-11T11:09:59.850Z,101488.16
2023-02-11T11:12:27.735Z,101493.69
2023-02-11T11:15:25.978Z,101495.50
2023-02-11T11:18:20.875Z,101490.05
2023-02-11T11:21:00.186Z,101482.61
2023-02-11T11:23:29.889Z,101479.01
2023-02-11T11:26:15.105Z,101482.50
2023-02-11T11:28:55.267Z,101479.43
2023-02-11T11:31:35.896Z,101482.15
2023-02-11T11:34:37.304Z,101486.19
2023-02-11T11:37:35.308Z,101474.55
2023-02-11T11:40:15.775Z,101472.67
2023-02-11T11:42:44.043Z,101463.91
2023-02-11T11:45:19.622Z,101459.95
2023-02-11T11:47:56.379Z,101475.21
2023-02-11T11:50:43.661Z,101483.20
2023-02-11T11:53:23.705Z,101481.73
2023-02-11T11:56:07.789Z,101483.55
2023-02-11T11:58:35.927Z,101473.75
2023-02-11T12:01:13.072Z,101470.21
2023-02-11T12:04:04.772Z,101477.07
2023-02-11T12:06:42.710Z,101474.19
2023-02-11T12:09:26.243Z,101466.38
2023-02-11T12:12:00.079Z,101459.27
2023-02-11T12:14:35.703Z,101456.48
2023-02-11T12:17:14.943Z,101461.28
2023-02-11T12:20:02.836Z,101454.84
2023-02-11T12:22:50.062Z,101447.85
2023-02-11T12:25:21.512Z,101437.55
2023-02-11T12:28:12.957Z,101425.80
2023-02-11T12:31:10.874Z,101436.55
2023-02-11T12:34:17.003Z,101442.86
2023-02-11T12:37:08.001Z,101435.51
2023-02-11T12:39:54.882Z,101433.94
2023-02-11T12:43:01.498Z,101421.83
2023-02-11T12:45:42.386Z,101411.34
2023-02-11T12:48:23.009Z,101413.61
2023-02-11T12:50:53.435Z,101416.88
2023-02-11T12:53:24.493Z,101414.69
2023-02-11T12:56:12.927Z,101412.40
2023-02-11T12:58:45.437Z,101418.66
2023-02-11T13:01:40.122Z,101427.30
2023-02-11T13:04:09.424Z,101421.98
2023-02-11T13:06:43.880Z,101409.33
2023-02-11T13:09:27.316Z,101420.21
2023-02-11T13:11:58.093Z,101420.54
2023-02-11T13:14:37.846Z,101421.96
2023-02-11T13:17:23.329Z,101424.29
2023-02-11T13:19:54.797Z,101416.20
2023-02-11T13:22:31.312Z,101416.08
2023-02-11T13:25:06.763Z,101425.96
2023-02-11T13:27:43.999Z,101424.46
2023-02-11T13:30:39.997Z,101420.93
2023-02-11T13:33:20.888Z,101425.50
2023-02-11T13:36:10.214Z,101421.61
2023-02-11T13:38:38.971Z,101421.70
2023-02-11T13:41:25.059Z,101413.98
2023-02-11T13:44:00.388Z,101415.05
2023-02-11T13:46:30.282Z,101412.20
2023-02-11T13:48:58.498Z,101411.27
2023-02-11T13:51:36.714Z,101410.42
2023-02-11T13:54:05.970Z,101408.73
2023-02-11T13:56:36.199Z,101414.88
2023-02-11T13:59:27.532Z,101413.95
2023-02-11T14:02:36.015Z,101413.89
2023-02-11T14:05:22.508Z,101411.48
2023-02-11T14:08:28.648Z,101416.82
2023-02-11T14:11:00.335Z,101421.52
2023-02-11T14:13:55.283Z,101426.59
2023-02-11T14:16:37.008Z,101425.67
2023-02-11T14:19:08.800Z,101436.13
2023-02-11T14:21:40.550Z,101436.88
2023-02-11T14:24:11.792Z,101437.04
2023-02-11T14:26:56.418Z,101441.16
2023-02-11T14:29:41.648Z,101442.33
2023-02-11T14:32:18.337Z,101448.44
2023-02-11T14:34:52.220Z,101453.34
2023-02-11T14:37:50.619Z,101455.56
2023-02-11T14:40:51.127Z,101464.28
2023-02-11T14:43:23.042Z,101462.92
2023-02-11T14:45:56.724Z,101465.39
2023-02-11T14:48:31.104Z,101474.30
2023-02-11T14:51:02.457Z,101480.45
2023-02-11T14:53:32.175Z,101483.11
2023-02-11T14:56:00.335Z,101483.17
2023-02-11T14:58:32.994Z,101481.38
2023-02-11T15:01:06.438Z,101486.58
2023-02-11T15:03:41.964Z,101489.33
2023-02-11T15:06:28.628Z,101489.48
2023-02-11T15:09:04.001Z,101488.38
2023-02-11T15:11:40.230Z,101486.80
2023-02-11T15:14:11.629Z,101486.02
2023-02-11T15:16:44.341Z,101483.73
2023-02-11T15:19:36.103Z,101486.91
2023-02-11T15:22:25.754Z,101485.08
2023-02-11T15:25:11.667Z,101482.16
2023-02-11T15:27:42.147Z,101484.64
2023-02-11T15:30:22.834Z,101483.16
2023-02-11T15:33:00.271Z,101481.36
2023-02-11T15:35:35.399Z,101481.18
2023-02-11T15:38:04.862Z,101483.90
2023-02-11T15:40:35.041Z,101485.45
2023-02-11T15:43:08.413Z,101490.88
2023-02-11T15:45:45.385Z,101491.64
2023-02-11T15:48:20.803Z,101493.05
2023-02-11T15:50:53.301Z,101493.55
2023-02-11T15:53:35.009Z,101504.27
2023-02-11T15:56:11.885Z,101504.64
2023-02-11T15:58:41.837Z,101498.80
2023-02-11T16:01:10.872Z,101502.68
2023-02-11T16:03:38.812Z,101503.41
2023-02-11T16:06:21.441Z,101505.67
2023-02-11T16:09:06.495Z,101506.39
2023-02-11T16:11:39.049Z,101506.88
2023-02-11T16:14:42.579Z,101508.58
2023-02-11T16:17:23.431Z,101496.06
2023-02-11T16:19:53.238Z,101492.30
2023-02-11T16:22:30.350Z,101487.09
2023-02-11T16:24:59.167Z,101490.23
2023-02-11T16:27:38.559Z,101502.10
2023-02-11T16:30:07.938Z,101506.84
2023-02-11T16:32:36.225Z,101513.48
2023-02-11T16:35:09.062Z,101517.83
2023-02-11T16:37:37.727Z,101515.65
2023-02-11T16:40:06.411Z,101518.77
2023-02-11T16:42:34.159Z,101522.83
2023-02-11T16:45:02.247Z,101527.41
2023-02-11T16:47:31.442Z,101526.95
2023-02-11T16:49:59.784Z,101531.09
2023-02-11T16:52:31.324Z,101536.25
2023-02-11T16:54:59.859Z,101543.38
2023-02-11T16:57:30.212Z,101543.10
2023-02-11T16:59:59.565Z,101542.02
2023-02-11T17:02:30.941Z,101542.45
2023-02-11T17:05:01.628Z,101559.45
2023-02-11T17:07:29.547Z,101568.34
2023-02-11T17:09:57.695Z,101569.06
2023-02-11T17:12:25.619Z,101565.34
2023-02-11T17:14:54.106Z,101566.02
2023-02-11T17:17:24.438Z,101564.41
2023-02-11T17:19:52.589Z,101572.65
2023-02-11T17:22:20.522Z,101582.95
2023-02-11T17:24:48.496Z,101592.16
2023-02-11T17:27:17.202Z,101595.30
2023-02-11T17:29:45.435Z,101596.89
2023-02-11T17:32:13.877Z,101605.66
2023-02-11T17:34:41.820Z,101606.11
2023-02-11T17:37:09.901Z,101609.21
2023-02-11T17:39:39.797Z,101608.06
2023-02-11T17:42:08.870Z,101616.26
2023-02-11T17:44:37.575Z,101617.64
2023-02-11T17:47:05.878Z,101615.46
2023-02-11T17:49:33.920Z,101617.09
2023-02-11T17:52:02.321Z,101622.77
2023-02-11T17:54:32.068Z,101624.14
2023-02-11T17:57:01.341Z,101625.05
2023-02-11T17:59:35.680Z,101626.23
2023-02-11T18:02:04.969Z,101626.71
2023-02-11T18:04:33.257Z,101625.08
2023-02-11T18:07:02.381Z,101627.64
2023-02-11T18:09:30.493Z,101624.08
2023-02-11T18:11:59.288Z,101625.65
2023-02-11T18:14:29.816Z,101626.78
2023-02-11T18:16:57.940Z,101633.38
2023-02-11T18:19:25.947Z,101633.42
2023-02-11T18:21:54.273Z,101636.33
2023-02-11T18:24:22.033Z,101637.91
2023-02-11T18:26:50.235Z,101638.84
2023-02-11T18:29:18.314Z,101645.60
2023-02-11T18:31:46.379Z,101646.52
2023-02-11T18:34:16.053Z,101644.64
2023-02-11T18:36:44.577Z,101642.54
2023-02-11T18:39:12.317Z,101641.86
2023-02-11T18:41:42.354Z,101639.85
2023-02-11T18:44:14.943Z,101636.47
2023-02-11T18:46:44.496Z,101634.73
2023-02-11T18:49:13.365Z,101637.58
2023-02-11T18:51:41.563Z,101640.20
2023-02-11T18:54:09.645Z,101642.76
2023-02-11T18:56:37.743Z,101656.49
2023-02-11T18:59:06.520Z,101659.16
2023-02-11T19:01:34.938Z,101661.88
2023-02-11T19:04:04.874Z,101656.14
2023-02-11T19:06:37.168Z,101658.27
2023-02-11T19:09:10.568Z,101664.39
2023-02-11T19:11:54.568Z,101666.91
2023-02-11T19:14:24.831Z,101672.04
2023-02-11T19:16:56.545Z,101680.67
2023-02-11T19:19:28.070Z,101679.10
2023-02-11T19:21:58.073Z,101681.62
2023-02-11T19:24:27.329Z,101683.00
2023-02-11T19:26:59.661Z,101681.65
2023-02-11T19:29:28.613Z,101681.46
2023-02-11T19:31:56.543Z,101687.66
2023-02-11T19:34:24.935Z,101682.88
2023-02-11T19:36:54.282Z,101682.83
2023-02-11T19:39:25.005Z,101683.50
2023-02-11T19:41:53.542Z,101679.56
2023-02-11T19:44:21.575Z,101686.10
2023-02-11T19:46:50.456Z,101687.34
2023-02-11T19:49:23.449Z,101689.70
2023-02-11T19:51:53.948Z,101692.95
2023-02-11T19:54:24.241Z,101690.21
2023-02-11T19:56:53.905Z,101688.59
2023-02-11T19:59:22.134Z,101693.52
2023-02-11T20:01:50.874Z,101696.69
2023-02-11T20:04:19.806Z,101702.83
2023-02-11T20:06:50.871Z,101711.36
2023-02-11T20:09:19.014Z,101708.41
2023-02-11T20:11:48.386Z,101714.25
2023-02-11T20:14:17.390Z,101714.70
2023-02-11T20:16:49.561Z,101713.31
2023-02-11T20:19:20.572Z,101712.63
2023-02-11T20:21:51.419Z,101719.50
2023-02-11T20:24:20.654Z,101726.15
2023-02-11T20:26:49.208Z,101727.13
2023-02-11T20:29:17.954Z,101732.38
2023-02-11T20:31:46.138Z,101731.34
2023-02-11T20:34:14.922Z,101733.54
2023-02-11T20:36:43.816Z,101729.99
2023-02-11T20:39:17.465Z,101736.09
2023-02-11T20:41:46.414Z,101743.01
2023-02-11T20:44:14.454Z,101751.40
2023-02-11T20:46:46.643Z,101753.88
2023-02-11T20:49:19.040Z,101754.13
2023-02-11T20:51:47.292Z,101749.61
2023-02-11T20:54:18.139Z,101754.40
2023-02-11T20:56:48.184Z,101759.30
2023-02-11T20:59:18.819Z,101762.44
2023-02-11T21:01:50.605Z,101759.77
2023-02-11T21:04:25.594Z,101763.17
2023-02-11T21:06:57.882Z,101771.69
2023-02-11T21:09:31.025Z,101776.90
2023-02-11T21:12:00.602Z,101775.23
2023-02-11T21:14:29.436Z,101785.52
2023-02-11T21:17:00.008Z,101796.23
2023-02-11T21:19:29.105Z,101798.39
2023-02-11T21:22:01.773Z,101806.73
2023-02-11T21:24:33.769Z,101802.52
2023-02-11T21:27:03.835Z,101809.77
2023-02-11T21:29:35.142Z,101807.40
2023-02-11T21:32:05.984Z,101810.23
2023-02-11T21:34:36.242Z,101813.05
2023-02-11T21:37:04.268Z,101814.61
2023-02-11T21:39:33.692Z,101813.88
2023-02-11T21:42:02.391Z,101817.20
2023-02-11T21:44:32.972Z,101822.45
2023-02-11T21:47:00.973Z,101824.67
2023-02-11T21:49:30.505Z,101826.70
2023-02-11T21:51:58.457Z,101831.35
2023-02-11T21:54:32.158Z,101832.50
2023-02-11T21:57:03.413Z,101831.20
2023-02-11T21:59:32.744Z,101829.02
2023-02-11T22:02:01.592Z,101839.17
2023-02-11T22:04:29.867Z,101843.73
2023-02-11T22:07:00.483Z,101849.32
2023-02-11T22:09:32.069Z,101854.91
2023-02-11T22:12:00.628Z,101858.10
2023-02-11T22:14:30.142Z,101857.45
2023-02-11T22:17:00.196Z,101861.67
2023-02-11T22:19:28.256Z,101866.92
2023-02-11T22:21:56.467Z,101870.00
2023-02-11T22:24:25.023Z,101880.52
2023-02-11T22:26:56.808Z,101887.73
2023-02-11T22:29:27.393Z,101893.77
2023-02-11T22:31:58.888Z,101897.32
2023-02-11T22:34:26.855Z,101895.55
2023-02-11T22:36:54.734Z,101897.48
2023-02-11T22:39:22.848Z,101898.46
2023-02-11T22:41:50.793Z,101903.58
2023-02-11T22:44:20.026Z,101906.02
2023-02-11T22:46:48.015Z,101905.90
2023-02-11T22:49:17.104Z,101901.66
2023-02-11T22:51:46.151Z,101903.27
2023-02-11T22:54:16.386Z,101905.07
2023-02-11T22:56:45.042Z,101909.73
2023-02-11T22:59:14.832Z,101914.61
2023-02-11T23:01:43.152Z,101906.21
2023-02-11T23:04:12.964Z,101905.52
2023-02-11T23:06:40.901Z,101908.05
2023-02-11T23:09:10.657Z,101911.89
2023-02-11T23:11:41.928Z,101919.71
2023-02-11T23:14:12.407Z,101917.04
2023-02-11T23:16:40.250Z,101912.23
2023-02-11T23:19:09.203Z,101921.10
2023-02-11T23:21:38.610Z,101919.22
2023-02-11T23:24:13.980Z,101918.38
2023-02-11T23:26:42.919Z,101923.00
2023-02-11T23:29:11.849Z,101921.88
2023-02-11T23:31:43.462Z,101921.19
2023-02-11T23:34:12.078Z,101921.33
2023-02-11T23:36:39.887Z,101931.06
2023-02-11T23:39:07.832Z,101932.41
2023-02-11T23:41:35.897Z,101937.85
2023-02-11T23:44:03.779Z,101936.10
2023-02-11T23:46:31.618Z,101942.09
2023-02-11T23:48:59.646Z,101946.80
2023-02-11T23:51:27.350Z,101948.27
2023-02-11T23:53:56.260Z,101948.17
2023-02-11T23:56:26.550Z,101944.36
2023-02-11T23:58:56.485Z,101948.83
